sensor_id;sensor_type;location;lat;lon;timestamp;P1;durP1;ratioP1;P2;durP2;ratioP2
3207;SDS011;1616;52.394;9.756;2023-08-06T00:00:20;7.43;;;6.73;;
3207;SDS011;1616;52.394;9.756;2023-08-06T00:02:46;5.10;;;4.77;;
3207;SDS011;1616;52.394;9.756;2023-08-06T00:05:11;5.87;;;5.50;;
3207;SDS011;1616;52.394;9.756;2023-08-06T00:07:37;7.00;;;6.60;;
3207;SDS011;1616;52.394;9.756;2023-08-06T00:10:03;8.00;;;7.40;;
3207;SDS011;1616;52.394;9.756;2023-08-06T00:12:30;9.03;;;8.20;;
3207;SDS011;1616;52.394;9.756;2023-08-06T00:14:56;13.00;;;8.20;;
3207;SDS011;1616;52.394;9.756;2023-08-06T00:17:22;9.00;;;8.00;;
3207;SDS011;1616;52.394;9.756;2023-08-06T00:19:48;6.80;;;6.20;;
3207;SDS011;1616;52.394;9.756;2023-08-06T00:22:13;8.27;;;7.37;;
3207;SDS011;1616;52.394;9.756;2023-08-06T00:24:39;7.90;;;7.20;;
3207;SDS011;1616;52.394;9.756;2023-08-06T00:27:05;5.90;;;5.47;;
3207;SDS011;1616;52.394;9.756;2023-08-06T00:29:30;6.50;;;6.03;;
3207;SDS011;1616;52.394;9.756;2023-08-06T00:31:56;7.13;;;5.40;;
3207;SDS011;1616;52.394;9.756;2023-08-06T00:34:22;7.17;;;6.10;;
3207;SDS011;1616;52.394;9.756;2023-08-06T00:36:48;6.37;;;5.97;;
3207;SDS011;1616;52.394;9.756;2023-08-06T00:39:14;6.37;;;5.97;;
3207;SDS011;1616;52.394;9.756;2023-08-06T00:41:40;5.80;;;5.40;;
3207;SDS011;1616;52.394;9.756;2023-08-06T00:44:08;5.60;;;5.30;;
3207;SDS011;1616;52.394;9.756;2023-08-06T00:46:34;6.40;;;6.10;;
3207;SDS011;1616;52.394;9.756;2023-08-06T00:49:00;4.90;;;4.60;;
3207;SDS011;1616;52.394;9.756;2023-08-06T00:51:26;6.10;;;5.70;;
3207;SDS011;1616;52.394;9.756;2023-08-06T00:53:52;6.13;;;5.63;;
3207;SDS011;1616;52.394;9.756;2023-08-06T00:56:18;10.63;;;6.87;;
3207;SDS011;1616;52.394;9.756;2023-08-06T00:58:44;6.40;;;5.90;;
3207;SDS011;1616;52.394;9.756;2023-08-06T01:01:12;6.47;;;5.97;;
3207;SDS011;1616;52.394;9.756;2023-08-06T01:03:37;6.40;;;6.00;;
3207;SDS011;1616;52.394;9.756;2023-08-06T01:06:04;6.20;;;5.70;;
3207;SDS011;1616;52.394;9.756;2023-08-06T01:11:36;6.00;;;5.60;;
3207;SDS011;1616;52.394;9.756;2023-08-06T01:14:21;8.43;;;7.47;;
3207;SDS011;1616;52.394;9.756;2023-08-06T01:17:12;6.97;;;6.27;;
3207;SDS011;1616;52.394;9.756;2023-08-06T01:19:39;6.70;;;6.27;;
3207;SDS011;1616;52.394;9.756;2023-08-06T01:22:05;6.77;;;6.40;;
3207;SDS011;1616;52.394;9.756;2023-08-06T01:24:30;6.70;;;6.40;;
3207;SDS011;1616;52.394;9.756;2023-08-06T01:27:14;9.90;;;8.27;;
3207;SDS011;1616;52.394;9.756;2023-08-06T01:29:51;7.10;;;6.60;;
3207;SDS011;1616;52.394;9.756;2023-08-06T01:32:31;6.87;;;6.37;;
3207;SDS011;1616;52.394;9.756;2023-08-06T01:34:59;8.83;;;7.27;;
3207;SDS011;1616;52.394;9.756;2023-08-06T01:37:26;5.63;;;5.27;;
3207;SDS011;1616;52.394;9.756;2023-08-06T01:39:53;10.13;;;7.63;;
3207;SDS011;1616;52.394;9.756;2023-08-06T01:42:19;6.57;;;6.10;;
3207;SDS011;1616;52.394;9.756;2023-08-06T01:44:44;7.23;;;6.63;;
3207;SDS011;1616;52.394;9.756;2023-08-06T01:47:10;9.20;;;8.40;;
3207;SDS011;1616;52.394;9.756;2023-08-06T01:49:36;9.27;;;8.47;;
3207;SDS011;1616;52.394;9.756;2023-08-06T01:52:02;8.00;;;7.20;;
3207;SDS011;1616;52.394;9.756;2023-08-06T01:54:27;8.07;;;5.50;;
3207;SDS011;1616;52.394;9.756;2023-08-06T01:56:53;7.83;;;6.60;;
3207;SDS011;1616;52.394;9.756;2023-08-06T01:59:19;7.40;;;6.80;;
3207;SDS011;1616;52.394;9.756;2023-08-06T02:01:45;7.77;;;7.27;;
3207;SDS011;1616;52.394;9.756;2023-08-06T02:04:10;9.50;;;8.80;;
3207;SDS011;1616;52.394;9.756;2023-08-06T02:06:36;10.70;;;9.57;;
3207;SDS011;1616;52.394;9.756;2023-08-06T02:09:01;10.13;;;9.10;;
3207;SDS011;1616;52.394;9.756;2023-08-06T02:11:27;10.37;;;9.30;;
3207;SDS011;1616;52.394;9.756;2023-08-06T02:13:54;9.63;;;8.87;;
3207;SDS011;1616;52.394;9.756;2023-08-06T02:16:20;10.20;;;8.30;;
3207;SDS011;1616;52.394;9.756;2023-08-06T02:18:45;11.87;;;9.20;;
3207;SDS011;1616;52.394;9.756;2023-08-06T02:21:11;13.83;;;10.53;;
3207;SDS011;1616;52.394;9.756;2023-08-06T02:23:37;9.97;;;9.17;;
3207;SDS011;1616;52.394;9.756;2023-08-06T02:26:03;8.77;;;8.00;;
3207;SDS011;1616;52.394;9.756;2023-08-06T02:28:31;15.40;;;10.33;;
3207;SDS011;1616;52.394;9.756;2023-08-06T02:30:57;11.90;;;9.97;;
3207;SDS011;1616;52.394;9.756;2023-08-06T02:33:23;23.30;;;12.07;;
3207;SDS011;1616;52.394;9.756;2023-08-06T02:35:48;12.53;;;10.43;;
3207;SDS011;1616;52.394;9.756;2023-08-06T02:38:14;17.77;;;12.40;;
3207;SDS011;1616;52.394;9.756;2023-08-06T02:40:43;17.50;;;12.87;;
3207;SDS011;1616;52.394;9.756;2023-08-06T02:43:10;23.37;;;12.70;;
3207;SDS011;1616;52.394;9.756;2023-08-06T02:45:36;12.53;;;10.50;;
3207;SDS011;1616;52.394;9.756;2023-08-06T02:48:01;17.20;;;12.87;;
3207;SDS011;1616;52.394;9.756;2023-08-06T02:50:28;18.70;;;11.97;;
3207;SDS011;1616;52.394;9.756;2023-08-06T02:52:53;16.10;;;11.97;;
3207;SDS011;1616;52.394;9.756;2023-08-06T02:55:19;18.57;;;12.23;;
3207;SDS011;1616;52.394;9.756;2023-08-06T02:57:44;11.40;;;9.23;;
3207;SDS011;1616;52.394;9.756;2023-08-06T03:00:10;19.20;;;13.73;;
3207;SDS011;1616;52.394;9.756;2023-08-06T03:02:37;12.30;;;10.80;;
3207;SDS011;1616;52.394;9.756;2023-08-06T03:05:02;29.30;;;14.47;;
3207;SDS011;1616;52.394;9.756;2023-08-06T03:07:28;14.93;;;12.70;;
3207;SDS011;1616;52.394;9.756;2023-08-06T03:09:54;18.80;;;12.57;;
3207;SDS011;1616;52.394;9.756;2023-08-06T03:12:20;13.47;;;11.70;;
3207;SDS011;1616;52.394;9.756;2023-08-06T03:14:46;15.87;;;11.27;;
3207;SDS011;1616;52.394;9.756;2023-08-06T03:17:11;22.20;;;12.97;;
3207;SDS011;1616;52.394;9.756;2023-08-06T03:19:38;13.80;;;12.13;;
3207;SDS011;1616;52.394;9.756;2023-08-06T03:22:04;17.10;;;13.30;;
3207;SDS011;1616;52.394;9.756;2023-08-06T03:24:30;22.93;;;13.93;;
3207;SDS011;1616;52.394;9.756;2023-08-06T03:26:55;22.60;;;15.17;;
3207;SDS011;1616;52.394;9.756;2023-08-06T03:29:21;17.50;;;13.20;;
3207;SDS011;1616;52.394;9.756;2023-08-06T03:31:47;16.23;;;13.80;;
3207;SDS011;1616;52.394;9.756;2023-08-06T03:34:12;14.73;;;12.37;;
3207;SDS011;1616;52.394;9.756;2023-08-06T03:36:38;17.40;;;11.37;;
3207;SDS011;1616;52.394;9.756;2023-08-06T03:39:04;18.30;;;14.10;;
3207;SDS011;1616;52.394;9.756;2023-08-06T03:41:31;31.33;;;14.27;;
3207;SDS011;1616;52.394;9.756;2023-08-06T03:43:56;26.70;;;14.83;;
3207;SDS011;1616;52.394;9.756;2023-08-06T03:46:22;24.70;;;13.13;;
3207;SDS011;1616;52.394;9.756;2023-08-06T03:48:47;20.83;;;13.57;;
3207;SDS011;1616;52.394;9.756;2023-08-06T03:51:13;28.37;;;14.10;;
3207;SDS011;1616;52.394;9.756;2023-08-06T03:53:38;36.57;;;15.93;;
3207;SDS011;1616;52.394;9.756;2023-08-06T03:56:04;22.00;;;12.63;;
3207;SDS011;1616;52.394;9.756;2023-08-06T03:58:30;42.07;;;16.27;;
3207;SDS011;1616;52.394;9.756;2023-08-06T04:01:02;19.10;;;13.23;;
3207;SDS011;1616;52.394;9.756;2023-08-06T04:03:28;55.93;;;17.37;;
3207;SDS011;1616;52.394;9.756;2023-08-06T04:05:54;19.20;;;13.00;;
3207;SDS011;1616;52.394;9.756;2023-08-06T04:08:20;137.37;;;21.30;;
3207;SDS011;1616;52.394;9.756;2023-08-06T04:10:49;121.90;;;20.33;;
3207;SDS011;1616;52.394;9.756;2023-08-06T04:13:16;180.60;;;21.53;;
3207;SDS011;1616;52.394;9.756;2023-08-06T04:15:41;30.30;;;14.67;;
3207;SDS011;1616;52.394;9.756;2023-08-06T04:18:07;34.03;;;14.30;;
3207;SDS011;1616;52.394;9.756;2023-08-06T04:20:33;46.83;;;15.40;;
3207;SDS011;1616;52.394;9.756;2023-08-06T04:22:59;37.23;;;13.17;;
3207;SDS011;1616;52.394;9.756;2023-08-06T04:25:30;18.00;;;11.80;;
3207;SDS011;1616;52.394;9.756;2023-08-06T04:27:56;23.27;;;12.93;;
3207;SDS011;1616;52.394;9.756;2023-08-06T04:30:22;16.70;;;10.67;;
3207;SDS011;1616;52.394;9.756;2023-08-06T04:32:49;16.10;;;11.60;;
3207;SDS011;1616;52.394;9.756;2023-08-06T04:35:15;18.10;;;10.60;;
3207;SDS011;1616;52.394;9.756;2023-08-06T04:37:41;20.40;;;12.37;;
3207;SDS011;1616;52.394;9.756;2023-08-06T04:40:12;14.23;;;10.53;;
3207;SDS011;1616;52.394;9.756;2023-08-06T04:42:41;18.80;;;12.37;;
3207;SDS011;1616;52.394;9.756;2023-08-06T04:45:07;14.30;;;11.67;;
3207;SDS011;1616;52.394;9.756;2023-08-06T04:47:33;14.77;;;11.47;;
3207;SDS011;1616;52.394;9.756;2023-08-06T04:49:59;12.43;;;10.27;;
3207;SDS011;1616;52.394;9.756;2023-08-06T04:52:24;13.40;;;8.87;;
3207;SDS011;1616;52.394;9.756;2023-08-06T04:54:53;14.53;;;11.23;;
3207;SDS011;1616;52.394;9.756;2023-08-06T04:57:19;15.33;;;12.07;;
3207;SDS011;1616;52.394;9.756;2023-08-06T04:59:45;16.83;;;11.00;;
3207;SDS011;1616;52.394;9.756;2023-08-06T05:02:11;14.63;;;11.37;;
3207;SDS011;1616;52.394;9.756;2023-08-06T05:04:36;15.57;;;11.80;;
3207;SDS011;1616;52.394;9.756;2023-08-06T05:07:03;18.70;;;13.17;;
3207;SDS011;1616;52.394;9.756;2023-08-06T05:09:29;18.87;;;12.30;;
3207;SDS011;1616;52.394;9.756;2023-08-06T05:11:54;16.33;;;11.50;;
3207;SDS011;1616;52.394;9.756;2023-08-06T05:14:20;18.47;;;13.27;;
3207;SDS011;1616;52.394;9.756;2023-08-06T05:16:46;14.00;;;11.20;;
3207;SDS011;1616;52.394;9.756;2023-08-06T05:19:11;13.17;;;10.97;;
3207;SDS011;1616;52.394;9.756;2023-08-06T05:21:38;12.10;;;9.23;;
3207;SDS011;1616;52.394;9.756;2023-08-06T05:24:03;11.50;;;9.87;;
3207;SDS011;1616;52.394;9.756;2023-08-06T05:26:29;23.07;;;13.90;;
3207;SDS011;1616;52.394;9.756;2023-08-06T05:28:54;16.20;;;11.93;;
3207;SDS011;1616;52.394;9.756;2023-08-06T05:31:20;11.70;;;10.50;;
3207;SDS011;1616;52.394;9.756;2023-08-06T05:33:45;12.37;;;11.17;;
3207;SDS011;1616;52.394;9.756;2023-08-06T05:36:11;12.33;;;10.33;;
3207;SDS011;1616;52.394;9.756;2023-08-06T05:38:37;10.27;;;9.17;;
3207;SDS011;1616;52.394;9.756;2023-08-06T05:41:02;9.37;;;8.53;;
3207;SDS011;1616;52.394;9.756;2023-08-06T05:43:28;11.83;;;10.60;;
3207;SDS011;1616;52.394;9.756;2023-08-06T05:45:55;13.60;;;10.20;;
3207;SDS011;1616;52.394;9.756;2023-08-06T05:48:21;10.93;;;9.70;;
3207;SDS011;1616;52.394;9.756;2023-08-06T05:50:47;10.23;;;7.27;;
3207;SDS011;1616;52.394;9.756;2023-08-06T05:53:13;10.70;;;8.07;;
3207;SDS011;1616;52.394;9.756;2023-08-06T05:55:39;7.67;;;7.03;;
3207;SDS011;1616;52.394;9.756;2023-08-06T05:58:04;9.13;;;8.30;;
3207;SDS011;1616;52.394;9.756;2023-08-06T06:00:30;8.90;;;6.50;;
3207;SDS011;1616;52.394;9.756;2023-08-06T06:02:56;5.83;;;5.07;;
3207;SDS011;1616;52.394;9.756;2023-08-06T06:05:22;7.50;;;6.73;;
3207;SDS011;1616;52.394;9.756;2023-08-06T06:07:47;6.07;;;5.70;;
3207;SDS011;1616;52.394;9.756;2023-08-06T06:10:14;5.00;;;4.53;;
3207;SDS011;1616;52.394;9.756;2023-08-06T06:12:40;5.37;;;4.73;;
3207;SDS011;1616;52.394;9.756;2023-08-06T06:15:06;4.70;;;4.40;;
3207;SDS011;1616;52.394;9.756;2023-08-06T06:17:32;4.77;;;4.57;;
3207;SDS011;1616;52.394;9.756;2023-08-06T06:19:58;4.77;;;4.40;;
3207;SDS011;1616;52.394;9.756;2023-08-06T06:22:24;4.47;;;3.90;;
3207;SDS011;1616;52.394;9.756;2023-08-06T06:24:49;3.83;;;3.57;;
3207;SDS011;1616;52.394;9.756;2023-08-06T06:27:15;3.43;;;3.00;;
3207;SDS011;1616;52.394;9.756;2023-08-06T06:29:40;3.30;;;2.97;;
3207;SDS011;1616;52.394;9.756;2023-08-06T06:32:06;5.47;;;3.60;;
3207;SDS011;1616;52.394;9.756;2023-08-06T06:34:31;3.23;;;3.03;;
3207;SDS011;1616;52.394;9.756;2023-08-06T06:36:57;2.67;;;2.53;;
3207;SDS011;1616;52.394;9.756;2023-08-06T06:39:23;3.60;;;3.40;;
3207;SDS011;1616;52.394;9.756;2023-08-06T06:41:48;3.20;;;2.17;;
3207;SDS011;1616;52.394;9.756;2023-08-06T06:44:14;3.13;;;2.93;;
3207;SDS011;1616;52.394;9.756;2023-08-06T06:46:40;2.57;;;2.37;;
3207;SDS011;1616;52.394;9.756;2023-08-06T06:49:06;2.43;;;2.23;;
3207;SDS011;1616;52.394;9.756;2023-08-06T06:51:31;2.13;;;1.80;;
3207;SDS011;1616;52.394;9.756;2023-08-06T06:53:57;4.90;;;1.30;;
3207;SDS011;1616;52.394;9.756;2023-08-06T06:56:23;3.17;;;1.57;;
3207;SDS011;1616;52.394;9.756;2023-08-06T06:58:48;1.60;;;1.50;;
3207;SDS011;1616;52.394;9.756;2023-08-06T07:01:14;2.43;;;1.30;;
3207;SDS011;1616;52.394;9.756;2023-08-06T07:03:40;1.50;;;1.40;;
3207;SDS011;1616;52.394;9.756;2023-08-06T07:06:06;1.60;;;1.50;;
3207;SDS011;1616;52.394;9.756;2023-08-06T07:08:32;1.87;;;1.20;;
3207;SDS011;1616;52.394;9.756;2023-08-06T07:11:01;2.80;;;1.20;;
3207;SDS011;1616;52.394;9.756;2023-08-06T07:13:28;1.20;;;1.10;;
3207;SDS011;1616;52.394;9.756;2023-08-06T07:15:55;1.17;;;1.07;;
3207;SDS011;1616;52.394;9.756;2023-08-06T07:18:21;2.33;;;1.30;;
3207;SDS011;1616;52.394;9.756;2023-08-06T07:20:48;3.00;;;1.00;;
3207;SDS011;1616;52.394;9.756;2023-08-06T07:23:14;1.33;;;1.23;;
3207;SDS011;1616;52.394;9.756;2023-08-06T07:25:40;4.90;;;1.20;;
3207;SDS011;1616;52.394;9.756;2023-08-06T07:28:06;1.20;;;1.10;;
3207;SDS011;1616;52.394;9.756;2023-08-06T07:30:31;1.40;;;1.20;;
3207;SDS011;1616;52.394;9.756;2023-08-06T07:32:57;1.20;;;1.10;;
3207;SDS011;1616;52.394;9.756;2023-08-06T07:35:23;1.50;;;1.23;;
3207;SDS011;1616;52.394;9.756;2023-08-06T07:37:48;1.17;;;1.07;;
3207;SDS011;1616;52.394;9.756;2023-08-06T07:40:14;2.20;;;1.00;;
3207;SDS011;1616;52.394;9.756;2023-08-06T07:42:40;1.20;;;1.10;;
3207;SDS011;1616;52.394;9.756;2023-08-06T07:45:06;1.30;;;1.20;;
3207;SDS011;1616;52.394;9.756;2023-08-06T07:47:32;2.07;;;1.07;;
3207;SDS011;1616;52.394;9.756;2023-08-06T07:49:58;4.90;;;1.03;;
3207;SDS011;1616;52.394;9.756;2023-08-06T07:52:24;1.67;;;0.90;;
3207;SDS011;1616;52.394;9.756;2023-08-06T07:54:50;1.50;;;1.10;;
3207;SDS011;1616;52.394;9.756;2023-08-06T07:57:16;1.30;;;0.90;;
3207;SDS011;1616;52.394;9.756;2023-08-06T07:59:41;1.10;;;0.90;;
3207;SDS011;1616;52.394;9.756;2023-08-06T08:02:08;1.30;;;1.10;;
3207;SDS011;1616;52.394;9.756;2023-08-06T08:04:34;2.20;;;1.30;;
3207;SDS011;1616;52.394;9.756;2023-08-06T08:07:00;3.10;;;1.10;;
3207;SDS011;1616;52.394;9.756;2023-08-06T08:09:25;1.90;;;1.20;;
3207;SDS011;1616;52.394;9.756;2023-08-06T08:11:51;3.50;;;1.00;;
3207;SDS011;1616;52.394;9.756;2023-08-06T08:14:17;1.20;;;1.10;;
3207;SDS011;1616;52.394;9.756;2023-08-06T08:16:43;1.10;;;1.00;;
3207;SDS011;1616;52.394;9.756;2023-08-06T08:19:09;1.77;;;1.00;;
3207;SDS011;1616;52.394;9.756;2023-08-06T08:21:34;2.60;;;1.20;;
3207;SDS011;1616;52.394;9.756;2023-08-06T08:24:00;2.00;;;1.00;;
3207;SDS011;1616;52.394;9.756;2023-08-06T08:26:26;1.87;;;0.90;;
3207;SDS011;1616;52.394;9.756;2023-08-06T08:28:55;1.40;;;0.90;;
3207;SDS011;1616;52.394;9.756;2023-08-06T08:31:21;5.23;;;1.00;;
3207;SDS011;1616;52.394;9.756;2023-08-06T08:33:47;1.47;;;0.93;;
3207;SDS011;1616;52.394;9.756;2023-08-06T08:36:13;1.80;;;1.00;;
3207;SDS011;1616;52.394;9.756;2023-08-06T08:38:39;1.40;;;0.93;;
3207;SDS011;1616;52.394;9.756;2023-08-06T08:41:05;2.30;;;1.07;;
3207;SDS011;1616;52.394;9.756;2023-08-06T08:43:31;1.57;;;0.90;;
3207;SDS011;1616;52.394;9.756;2023-08-06T08:45:57;1.73;;;1.00;;
3207;SDS011;1616;52.394;9.756;2023-08-06T08:48:25;3.07;;;1.10;;
3207;SDS011;1616;52.394;9.756;2023-08-06T08:50:52;1.07;;;0.90;;
3207;SDS011;1616;52.394;9.756;2023-08-06T08:53:18;1.40;;;0.90;;
3207;SDS011;1616;52.394;9.756;2023-08-06T08:55:47;1.10;;;0.90;;
3207;SDS011;1616;52.394;9.756;2023-08-06T08:58:14;1.33;;;1.10;;
3207;SDS011;1616;52.394;9.756;2023-08-06T09:00:43;2.20;;;1.00;;
3207;SDS011;1616;52.394;9.756;2023-08-06T09:03:11;1.20;;;0.97;;
3207;SDS011;1616;52.394;9.756;2023-08-06T09:05:37;1.00;;;0.90;;
3207;SDS011;1616;52.394;9.756;2023-08-06T09:08:09;2.53;;;1.50;;
3207;SDS011;1616;52.394;9.756;2023-08-06T09:10:39;1.13;;;1.03;;
3207;SDS011;1616;52.394;9.756;2023-08-06T09:13:07;1.20;;;0.93;;
3207;SDS011;1616;52.394;9.756;2023-08-06T09:15:33;1.20;;;1.10;;
3207;SDS011;1616;52.394;9.756;2023-08-06T09:17:59;1.43;;;1.00;;
3207;SDS011;1616;52.394;9.756;2023-08-06T09:20:25;1.10;;;1.00;;
3207;SDS011;1616;52.394;9.756;2023-08-06T09:22:54;1.10;;;0.90;;
3207;SDS011;1616;52.394;9.756;2023-08-06T09:25:21;1.10;;;1.00;;
3207;SDS011;1616;52.394;9.756;2023-08-06T09:27:50;1.03;;;0.93;;
3207;SDS011;1616;52.394;9.756;2023-08-06T09:30:32;1.20;;;1.00;;
3207;SDS011;1616;52.394;9.756;2023-08-06T09:32:59;1.73;;;1.00;;
3207;SDS011;1616;52.394;9.756;2023-08-06T09:35:27;1.00;;;0.90;;
3207;SDS011;1616;52.394;9.756;2023-08-06T09:37:54;1.20;;;1.00;;
3207;SDS011;1616;52.394;9.756;2023-08-06T09:40:27;1.93;;;1.00;;
3207;SDS011;1616;52.394;9.756;2023-08-06T09:42:55;1.03;;;0.93;;
3207;SDS011;1616;52.394;9.756;2023-08-06T09:45:21;1.03;;;0.93;;
3207;SDS011;1616;52.394;9.756;2023-08-06T09:47:48;1.27;;;0.90;;
3207;SDS011;1616;52.394;9.756;2023-08-06T09:50:18;4.30;;;1.00;;
3207;SDS011;1616;52.394;9.756;2023-08-06T09:52:44;1.40;;;1.00;;
3207;SDS011;1616;52.394;9.756;2023-08-06T09:55:11;1.20;;;1.00;;
3207;SDS011;1616;52.394;9.756;2023-08-06T09:57:39;1.35;;;0.88;;
3207;SDS011;1616;52.394;9.756;2023-08-06T10:00:05;2.13;;;0.90;;
3207;SDS011;1616;52.394;9.756;2023-08-06T10:02:34;1.50;;;1.10;;
3207;SDS011;1616;52.394;9.756;2023-08-06T10:05:02;2.05;;;1.10;;
3207;SDS011;1616;52.394;9.756;2023-08-06T10:07:29;1.40;;;1.10;;
3207;SDS011;1616;52.394;9.756;2023-08-06T10:09:55;4.67;;;1.10;;
3207;SDS011;1616;52.394;9.756;2023-08-06T10:12:21;1.17;;;0.95;;
3207;SDS011;1616;52.394;9.756;2023-08-06T10:14:51;1.48;;;1.02;;
3207;SDS011;1616;52.394;9.756;2023-08-06T10:17:22;1.40;;;1.10;;
3207;SDS011;1616;52.394;9.756;2023-08-06T10:19:49;1.10;;;0.90;;
3207;SDS011;1616;52.394;9.756;2023-08-06T10:22:16;2.07;;;1.20;;
3207;SDS011;1616;52.394;9.756;2023-08-06T10:24:49;3.63;;;1.13;;
3207;SDS011;1616;52.394;9.756;2023-08-06T10:30:20;1.65;;;0.90;;
3207;SDS011;1616;52.394;9.756;2023-08-06T10:32:47;3.45;;;1.05;;
3207;SDS011;1616;52.394;9.756;2023-08-06T10:35:29;1.45;;;1.35;;
3207;SDS011;1616;52.394;9.756;2023-08-06T10:38:20;1.40;;;1.10;;
3207;SDS011;1616;52.394;9.756;2023-08-06T10:43:29;2.60;;;1.00;;
3207;SDS011;1616;52.394;9.756;2023-08-06T10:45:55;4.73;;;1.10;;
3207;SDS011;1616;52.394;9.756;2023-08-06T10:48:35;1.20;;;1.10;;
3207;SDS011;1616;52.394;9.756;2023-08-06T10:51:12;1.00;;;0.90;;
3207;SDS011;1616;52.394;9.756;2023-08-06T10:53:41;3.23;;;1.00;;
3207;SDS011;1616;52.394;9.756;2023-08-06T10:56:14;1.42;;;0.90;;
3207;SDS011;1616;52.394;9.756;2023-08-06T10:58:41;1.40;;;0.90;;
3207;SDS011;1616;52.394;9.756;2023-08-06T11:01:07;1.00;;;0.90;;
3207;SDS011;1616;52.394;9.756;2023-08-06T11:03:33;2.17;;;1.20;;
3207;SDS011;1616;52.394;9.756;2023-08-06T11:05:59;0.98;;;0.80;;
3207;SDS011;1616;52.394;9.756;2023-08-06T11:08:32;1.20;;;0.80;;
3207;SDS011;1616;52.394;9.756;2023-08-06T11:11:09;1.10;;;0.98;;
3207;SDS011;1616;52.394;9.756;2023-08-06T11:13:38;1.33;;;0.90;;
3207;SDS011;1616;52.394;9.756;2023-08-06T11:16:14;1.40;;;0.90;;
3207;SDS011;1616;52.394;9.756;2023-08-06T11:18:41;1.67;;;0.93;;
3207;SDS011;1616;52.394;9.756;2023-08-06T11:21:07;2.78;;;1.20;;
3207;SDS011;1616;52.394;9.756;2023-08-06T11:23:33;1.73;;;0.80;;
3207;SDS011;1616;52.394;9.756;2023-08-06T11:26:00;4.55;;;1.00;;
3207;SDS011;1616;52.394;9.756;2023-08-06T11:28:26;1.08;;;0.85;;
3207;SDS011;1616;52.394;9.756;2023-08-06T11:30:52;2.03;;;1.00;;
3207;SDS011;1616;52.394;9.756;2023-08-06T11:33:26;4.22;;;0.90;;
3207;SDS011;1616;52.394;9.756;2023-08-06T11:35:54;5.85;;;1.00;;
3207;SDS011;1616;52.394;9.756;2023-08-06T11:38:21;4.13;;;0.93;;
3207;SDS011;1616;52.394;9.756;2023-08-06T11:40:47;1.20;;;0.90;;
3207;SDS011;1616;52.394;9.756;2023-08-06T11:43:13;2.45;;;1.00;;
3207;SDS011;1616;52.394;9.756;2023-08-06T11:45:39;1.20;;;1.02;;
3207;SDS011;1616;52.394;9.756;2023-08-06T11:48:06;1.63;;;1.13;;
3207;SDS011;1616;52.394;9.756;2023-08-06T11:50:36;2.20;;;0.98;;
3207;SDS011;1616;52.394;9.756;2023-08-06T11:53:03;1.20;;;1.05;;
3207;SDS011;1616;52.394;9.756;2023-08-06T11:55:29;1.35;;;1.08;;
3207;SDS011;1616;52.394;9.756;2023-08-06T11:57:55;1.13;;;1.02;;
3207;SDS011;1616;52.394;9.756;2023-08-06T12:00:22;1.08;;;0.90;;
3207;SDS011;1616;52.394;9.756;2023-08-06T12:02:50;1.15;;;1.05;;
3207;SDS011;1616;52.394;9.756;2023-08-06T12:07:49;1.23;;;1.13;;
3207;SDS011;1616;52.394;9.756;2023-08-06T12:10:18;3.25;;;1.00;;
3207;SDS011;1616;52.394;9.756;2023-08-06T12:12:47;2.28;;;1.02;;
3207;SDS011;1616;52.394;9.756;2023-08-06T12:15:13;2.55;;;1.08;;
3207;SDS011;1616;52.394;9.756;2023-08-06T12:17:39;1.98;;;1.10;;
3207;SDS011;1616;52.394;9.756;2023-08-06T12:20:06;5.57;;;1.20;;
3207;SDS011;1616;52.394;9.756;2023-08-06T12:22:32;1.40;;;1.30;;
3207;SDS011;1616;52.394;9.756;2023-08-06T12:25:03;2.42;;;1.10;;
3207;SDS011;1616;52.394;9.756;2023-08-06T12:27:35;3.15;;;1.10;;
3207;SDS011;1616;52.394;9.756;2023-08-06T12:30:02;1.58;;;1.02;;
3207;SDS011;1616;52.394;9.756;2023-08-06T12:32:28;2.90;;;1.30;;
3207;SDS011;1616;52.394;9.756;2023-08-06T12:34:54;1.87;;;1.17;;
3207;SDS011;1616;52.394;9.756;2023-08-06T12:37:20;2.13;;;1.07;;
3207;SDS011;1616;52.394;9.756;2023-08-06T12:39:46;3.00;;;1.10;;
3207;SDS011;1616;52.394;9.756;2023-08-06T12:42:12;1.83;;;1.30;;
3207;SDS011;1616;52.394;9.756;2023-08-06T12:44:38;2.50;;;1.47;;
3207;SDS011;1616;52.394;9.756;2023-08-06T12:47:04;2.87;;;1.13;;
3207;SDS011;1616;52.394;9.756;2023-08-06T12:49:29;1.50;;;1.20;;
3207;SDS011;1616;52.394;9.756;2023-08-06T12:51:56;2.60;;;1.30;;
3207;SDS011;1616;52.394;9.756;2023-08-06T12:54:24;1.40;;;1.30;;
3207;SDS011;1616;52.394;9.756;2023-08-06T12:56:51;2.07;;;1.50;;
3207;SDS011;1616;52.394;9.756;2023-08-06T12:59:17;1.67;;;1.40;;
3207;SDS011;1616;52.394;9.756;2023-08-06T13:01:43;1.33;;;1.23;;
3207;SDS011;1616;52.394;9.756;2023-08-06T13:04:10;1.27;;;1.10;;
3207;SDS011;1616;52.394;9.756;2023-08-06T13:06:36;1.43;;;1.30;;
3207;SDS011;1616;52.394;9.756;2023-08-06T13:09:04;1.90;;;1.30;;
3207;SDS011;1616;52.394;9.756;2023-08-06T13:11:31;1.50;;;1.30;;
3207;SDS011;1616;52.394;9.756;2023-08-06T13:14:07;5.43;;;1.30;;
3207;SDS011;1616;52.394;9.756;2023-08-06T13:16:34;1.50;;;1.40;;
3207;SDS011;1616;52.394;9.756;2023-08-06T13:19:01;1.40;;;1.30;;
3207;SDS011;1616;52.394;9.756;2023-08-06T13:24:11;1.50;;;1.30;;
3207;SDS011;1616;52.394;9.756;2023-08-06T13:26:37;1.70;;;1.50;;
3207;SDS011;1616;52.394;9.756;2023-08-06T13:29:03;16.33;;;1.50;;
3207;SDS011;1616;52.394;9.756;2023-08-06T13:31:30;1.87;;;1.57;;
3207;SDS011;1616;52.394;9.756;2023-08-06T13:33:55;1.40;;;1.30;;
3207;SDS011;1616;52.394;9.756;2023-08-06T13:36:23;11.13;;;1.70;;
3207;SDS011;1616;52.394;9.756;2023-08-06T13:38:49;4.37;;;1.40;;
3207;SDS011;1616;52.394;9.756;2023-08-06T13:41:15;1.87;;;1.50;;
3207;SDS011;1616;52.394;9.756;2023-08-06T13:43:42;3.60;;;1.40;;
3207;SDS011;1616;52.394;9.756;2023-08-06T13:46:09;1.40;;;1.30;;
3207;SDS011;1616;52.394;9.756;2023-08-06T13:48:40;12.70;;;1.30;;
3207;SDS011;1616;52.394;9.756;2023-08-06T13:51:05;1.40;;;1.30;;
3207;SDS011;1616;52.394;9.756;2023-08-06T13:53:31;3.53;;;1.20;;
3207;SDS011;1616;52.394;9.756;2023-08-06T13:55:56;2.97;;;1.33;;
3207;SDS011;1616;52.394;9.756;2023-08-06T13:58:23;1.70;;;1.60;;
3207;SDS011;1616;52.394;9.756;2023-08-06T14:00:51;4.43;;;1.40;;
3207;SDS011;1616;52.394;9.756;2023-08-06T14:03:18;1.50;;;1.40;;
3207;SDS011;1616;52.394;9.756;2023-08-06T14:05:44;1.20;;;1.10;;
3207;SDS011;1616;52.394;9.756;2023-08-06T14:08:09;1.60;;;1.30;;
3207;SDS011;1616;52.394;9.756;2023-08-06T14:10:35;2.83;;;1.00;;
3207;SDS011;1616;52.394;9.756;2023-08-06T14:13:01;2.27;;;1.60;;
3207;SDS011;1616;52.394;9.756;2023-08-06T14:15:27;1.63;;;1.30;;
3207;SDS011;1616;52.394;9.756;2023-08-06T14:17:52;1.53;;;1.43;;
3207;SDS011;1616;52.394;9.756;2023-08-06T14:20:18;1.30;;;1.20;;
3207;SDS011;1616;52.394;9.756;2023-08-06T14:22:44;1.40;;;1.10;;
3207;SDS011;1616;52.394;9.756;2023-08-06T14:25:10;1.30;;;1.20;;
3207;SDS011;1616;52.394;9.756;2023-08-06T14:27:35;6.30;;;1.70;;
3207;SDS011;1616;52.394;9.756;2023-08-06T14:30:05;3.20;;;1.20;;
3207;SDS011;1616;52.394;9.756;2023-08-06T14:32:32;1.60;;;1.17;;
3207;SDS011;1616;52.394;9.756;2023-08-06T14:34:58;1.40;;;1.30;;
3207;SDS011;1616;52.394;9.756;2023-08-06T14:37:24;1.40;;;1.30;;
3207;SDS011;1616;52.394;9.756;2023-08-06T14:39:50;2.90;;;1.30;;
3207;SDS011;1616;52.394;9.756;2023-08-06T14:42:16;1.30;;;1.20;;
3207;SDS011;1616;52.394;9.756;2023-08-06T14:44:42;1.30;;;1.20;;
3207;SDS011;1616;52.394;9.756;2023-08-06T14:47:08;1.47;;;1.20;;
3207;SDS011;1616;52.394;9.756;2023-08-06T14:49:34;1.50;;;1.40;;
3207;SDS011;1616;52.394;9.756;2023-08-06T14:52:00;10.53;;;1.40;;
3207;SDS011;1616;52.394;9.756;2023-08-06T14:54:27;1.73;;;1.20;;
3207;SDS011;1616;52.394;9.756;2023-08-06T14:56:53;1.30;;;1.20;;
3207;SDS011;1616;52.394;9.756;2023-08-06T14:59:19;1.10;;;1.00;;
3207;SDS011;1616;52.394;9.756;2023-08-06T15:01:44;1.20;;;1.10;;
3207;SDS011;1616;52.394;9.756;2023-08-06T15:04:10;1.30;;;1.20;;
3207;SDS011;1616;52.394;9.756;2023-08-06T15:06:35;1.87;;;1.20;;
3207;SDS011;1616;52.394;9.756;2023-08-06T15:09:01;1.50;;;1.20;;
3207;SDS011;1616;52.394;9.756;2023-08-06T15:11:27;1.30;;;1.20;;
3207;SDS011;1616;52.394;9.756;2023-08-06T15:13:53;1.47;;;1.37;;
3207;SDS011;1616;52.394;9.756;2023-08-06T15:16:19;1.30;;;1.20;;
3207;SDS011;1616;52.394;9.756;2023-08-06T15:18:46;1.40;;;1.30;;